createdAt,value
2018-09-17T00:02:04.234Z,19.10
2018-09-17T00:04:34.499Z,19.03
2018-09-17T00:07:11.339Z,19.02
2018-09-17T00:09:41.849Z,18.98
2018-09-17T00:12:12.238Z,19.00
2018-09-17T00:14:42.819Z,19.03
2018-09-17T00:17:13.210Z,18.99
2018-09-17T00:19:43.564Z,18.99
2018-09-17T00:22:13.866Z,18.92
2018-09-17T00:24:44.487Z,18.89
2018-09-17T00:27:15.030Z,18.86
2018-09-17T00:29:45.496Z,18.86
2018-09-17T00:32:15.859Z,18.85
2018-09-17T00:34:46.480Z,18.81
2018-09-17T00:37:16.846Z,18.79
2018-09-17T00:39:47.312Z,18.79
2018-09-17T00:42:17.664Z,18.78
2018-09-17T00:44:48.236Z,18.76
2018-09-17T00:47:18.596Z,18.71
2018-09-17T00:49:51.883Z,18.70
2018-09-17T00:52:22.454Z,18.68
2018-09-17T00:54:52.924Z,18.69
2018-09-17T00:57:23.351Z,18.62
2018-09-17T00:59:53.896Z,18.57
2018-09-17T01:02:24.258Z,18.53
2018-09-17T01:04:54.931Z,18.51
2018-09-17T01:07:25.264Z,18.48
2018-09-17T01:09:55.671Z,18.44
2018-09-17T01:12:26.262Z,18.45
2018-09-17T01:14:56.780Z,18.47
2018-09-17T01:17:27.277Z,18.42
2018-09-17T01:19:57.898Z,18.41
2018-09-17T01:22:28.124Z,18.38
2018-09-17T01:24:58.452Z,18.41
2018-09-17T01:27:28.926Z,18.44
2018-09-17T01:29:59.430Z,18.41
2018-09-17T01:32:30.039Z,18.39
2018-09-17T01:35:00.370Z,18.38
2018-09-17T01:37:30.754Z,18.36
2018-09-17T01:40:00.747Z,18.38
2018-09-17T01:42:30.704Z,18.38
2018-09-17T01:45:00.724Z,18.36
2018-09-17T01:47:30.707Z,18.33
2018-09-17T01:50:01.352Z,18.30
2018-09-17T01:52:31.440Z,18.29
2018-09-17T01:55:01.450Z,18.24
2018-09-17T01:57:31.610Z,18.19
2018-09-17T02:00:01.671Z,18.17
2018-09-17T02:02:31.756Z,18.14
2018-09-17T02:05:02.067Z,18.14
2018-09-17T02:07:32.406Z,18.14
2018-09-17T02:10:03.029Z,18.13
2018-09-17T02:12:33.343Z,18.12
2018-09-17T02:15:03.918Z,18.14
2018-09-17T02:17:34.406Z,18.12
2018-09-17T02:20:04.747Z,18.08
2018-09-17T02:22:34.766Z,18.02
2018-09-17T02:25:05.192Z,17.99
2018-09-17T02:27:35.597Z,17.98
2018-09-17T02:30:05.662Z,17.96
2018-09-17T02:32:36.075Z,17.96
2018-09-17T02:35:06.622Z,17.88
2018-09-17T02:37:37.128Z,17.84
2018-09-17T02:40:11.466Z,17.81
2018-09-17T02:42:42.120Z,17.86
2018-09-17T02:45:12.559Z,17.85
2018-09-17T02:47:43.233Z,17.83
2018-09-17T02:50:13.590Z,17.81
2018-09-17T02:52:43.987Z,17.82
2018-09-17T02:55:14.418Z,17.77
2018-09-17T02:57:44.741Z,17.72
2018-09-17T03:00:19.413Z,17.72
2018-09-17T03:02:52.224Z,17.69
2018-09-17T03:05:22.665Z,17.68
2018-09-17T03:07:52.954Z,17.69
2018-09-17T03:10:23.375Z,17.67
2018-09-17T03:12:53.811Z,17.67
2018-09-17T03:15:40.595Z,17.65
2018-09-17T03:18:14.059Z,17.66
2018-09-17T03:20:44.639Z,17.64
2018-09-17T03:23:15.151Z,17.65
2018-09-17T03:25:45.600Z,17.65
2018-09-17T03:28:16.032Z,17.63
2018-09-17T03:30:46.443Z,17.63
2018-09-17T03:33:16.987Z,17.62
2018-09-17T03:35:47.572Z,17.58
2018-09-17T03:38:35.213Z,17.56
2018-09-17T03:41:06.623Z,17.53
2018-09-17T03:43:38.043Z,17.53
2018-09-17T03:46:08.592Z,17.52
2018-09-17T03:48:39.811Z,17.44
2018-09-17T03:51:10.837Z,17.43
2018-09-17T03:53:41.419Z,17.42
2018-09-17T03:56:11.842Z,17.44
2018-09-17T03:58:42.498Z,17.37
2018-09-17T04:01:12.957Z,17.37
2018-09-17T04:03:46.101Z,17.35
2018-09-17T04:06:16.668Z,17.35
2018-09-17T04:08:47.174Z,17.39
2018-09-17T04:11:17.331Z,17.33
2018-09-17T04:13:47.927Z,17.32
2018-09-17T04:16:18.483Z,17.32
2018-09-17T04:18:48.883Z,17.36
2018-09-17T04:21:19.195Z,17.34
2018-09-17T04:23:50.138Z,17.30
2018-09-17T04:26:20.742Z,17.29
2018-09-17T04:28:51.207Z,17.30
2018-09-17T04:31:21.452Z,17.26
2018-09-17T04:33:52.058Z,17.26
2018-09-17T04:36:22.171Z,17.26
2018-09-17T04:38:52.328Z,17.28
2018-09-17T04:41:22.500Z,17.27
2018-09-17T04:43:52.505Z,17.28
2018-09-17T04:46:22.603Z,17.28
2018-09-17T04:48:52.609Z,17.34
2018-09-17T04:51:22.595Z,17.41
2018-09-17T04:53:52.605Z,17.49
2018-09-17T04:56:22.638Z,17.59
2018-09-17T04:58:52.977Z,17.60
2018-09-17T05:01:23.273Z,17.64
2018-09-17T05:03:53.553Z,17.74
2018-09-17T05:06:23.931Z,17.82
2018-09-17T05:08:54.492Z,17.89
2018-09-17T05:11:24.985Z,17.94
2018-09-17T05:13:55.560Z,18.01
2018-09-17T05:16:26.052Z,18.03
2018-09-17T05:18:56.471Z,18.11
2018-09-17T05:21:26.726Z,18.19
2018-09-17T05:23:57.250Z,18.29
2018-09-17T05:26:27.371Z,18.35
2018-09-17T05:28:57.696Z,18.45
2018-09-17T05:31:28.142Z,18.58
2018-09-17T05:33:58.653Z,18.70
2018-09-17T05:36:29.122Z,18.80
2018-09-17T05:38:59.508Z,18.83
2018-09-17T05:41:29.864Z,18.90
2018-09-17T05:44:00.476Z,18.88
2018-09-17T05:46:31.087Z,18.91
2018-09-17T05:49:04.860Z,18.99
2018-09-17T05:51:35.217Z,19.06
2018-09-17T05:54:05.619Z,19.14
2018-09-17T05:56:35.975Z,19.30
2018-09-17T05:59:06.587Z,19.32
2018-09-17T06:01:36.979Z,19.42
2018-09-17T06:04:07.395Z,19.49
2018-09-17T06:06:37.884Z,19.55
2018-09-17T06:09:12.501Z,19.62
2018-09-17T06:11:42.865Z,19.70
2018-09-17T06:14:13.391Z,19.61
2018-09-17T06:16:44.064Z,19.67
2018-09-17T06:19:14.935Z,19.66
2018-09-17T06:21:45.501Z,19.72
2018-09-17T06:24:16.100Z,19.74
2018-09-17T06:26:46.798Z,19.73
2018-09-17T06:29:17.357Z,19.78
2018-09-17T06:31:47.711Z,19.77
2018-09-17T06:34:18.084Z,19.83
2018-09-17T06:36:48.654Z,19.89
2018-09-17T06:39:18.816Z,19.94
2018-09-17T06:41:49.285Z,20.07
2018-09-17T06:44:20.044Z,20.03
2018-09-17T06:46:50.488Z,20.07
2018-09-17T06:49:20.974Z,20.06
2018-09-17T06:51:51.714Z,20.11
2018-09-17T06:54:22.073Z,20.13
2018-09-17T06:56:53.280Z,20.17
2018-09-17T06:59:23.723Z,20.17
2018-09-17T07:01:54.143Z,20.22
2018-09-17T07:04:24.452Z,20.33
2018-09-17T07:06:54.960Z,20.37
2018-09-17T07:09:25.614Z,20.45
2018-09-17T07:11:55.971Z,20.49
2018-09-17T07:14:29.350Z,20.43
2018-09-17T07:16:59.949Z,20.44
2018-09-17T07:19:30.201Z,20.53
2018-09-17T07:22:00.461Z,20.56
2018-09-17T07:24:31.045Z,20.57
2018-09-17T07:27:01.450Z,20.61
2018-09-17T07:29:31.797Z,20.69
2018-09-17T07:32:02.313Z,20.83
2018-09-17T07:34:32.723Z,20.95
2018-09-17T07:37:03.199Z,21.07
2018-09-17T07:39:33.853Z,21.16
2018-09-17T07:42:04.472Z,21.21
2018-09-17T07:44:35.004Z,21.31
2018-09-17T07:47:05.621Z,21.34
2018-09-17T07:49:35.945Z,21.39
2018-09-17T07:52:06.369Z,21.47
2018-09-17T07:54:36.927Z,21.55
2018-09-17T07:57:07.642Z,21.62
2018-09-17T07:59:37.850Z,21.69
2018-09-17T08:02:08.180Z,21.73
2018-09-17T08:04:38.720Z,21.77
2018-09-17T08:07:09.232Z,21.80
2018-09-17T08:09:39.707Z,21.82
2018-09-17T08:12:10.124Z,21.87
2018-09-17T08:14:40.723Z,21.87
2018-09-17T08:17:11.109Z,21.96
2018-09-17T08:19:41.608Z,22.08
2018-09-17T08:22:11.568Z,22.26
2018-09-17T08:24:41.545Z,22.37
2018-09-17T08:27:11.555Z,22.50
2018-09-17T08:29:41.541Z,22.63
2018-09-17T08:32:11.529Z,22.68
2018-09-17T08:34:41.616Z,22.73
2018-09-17T08:37:11.596Z,22.76
2018-09-17T08:39:48.108Z,22.88
2018-09-17T08:42:18.085Z,23.10
2018-09-17T08:44:48.063Z,23.21
2018-09-17T08:47:18.051Z,23.32
2018-09-17T08:49:48.092Z,23.45
2018-09-17T08:52:18.394Z,23.66
2018-09-17T08:54:53.385Z,23.83
2018-09-17T08:57:28.452Z,23.97
2018-09-17T09:00:03.617Z,24.16
2018-09-17T09:02:38.696Z,24.26
2018-09-17T09:05:40.396Z,24.38
2018-09-17T09:08:10.375Z,24.63
2018-09-17T09:10:54.497Z,24.78
2018-09-17T09:13:29.764Z,25.03
2018-09-17T09:16:00.064Z,24.88
2018-09-17T09:18:30.507Z,24.80
2018-09-17T09:21:00.820Z,24.95
2018-09-17T09:23:31.376Z,25.13
2018-09-17T09:26:01.593Z,25.51
2018-09-17T09:28:31.673Z,25.61
2018-09-17T09:31:01.694Z,25.88
2018-09-17T09:33:31.856Z,25.96
2018-09-17T09:36:02.523Z,26.20
2018-09-17T09:38:32.592Z,26.40
2018-09-17T09:41:02.659Z,26.54
2018-09-17T09:43:33.618Z,26.79
2018-09-17T09:46:04.020Z,26.88
2018-09-17T09:48:34.666Z,26.88
2018-09-17T09:51:05.047Z,27.22
2018-09-17T09:53:35.358Z,27.37
2018-09-17T09:56:05.880Z,27.84
2018-09-17T09:58:37.557Z,28.20
2018-09-17T10:01:13.569Z,28.58
2018-09-17T10:03:44.994Z,28.63
2018-09-17T10:06:16.537Z,28.85
2018-09-17T10:08:51.975Z,29.09
2018-09-17T10:11:27.190Z,29.20
2018-09-17T10:14:02.356Z,29.66
2018-09-17T10:16:32.698Z,29.94
2018-09-17T10:19:07.761Z,30.23
2018-09-17T10:21:38.227Z,30.32
2018-09-17T10:24:09.747Z,30.27
2018-09-17T10:26:40.002Z,30.41
2018-09-17T10:29:10.490Z,30.60
2018-09-17T10:31:41.763Z,30.64
2018-09-17T10:34:12.284Z,30.59
2018-09-17T10:36:42.761Z,30.56
2018-09-17T10:39:14.261Z,30.33
2018-09-17T10:41:44.638Z,30.36
2018-09-17T10:44:15.015Z,30.23
2018-09-17T10:46:45.558Z,30.57
2018-09-17T10:49:15.973Z,30.33
2018-09-17T10:51:46.003Z,30.60
2018-09-17T10:54:16.032Z,30.88
2018-09-17T10:56:46.148Z,31.49
2018-09-17T10:59:16.172Z,32.04
2018-09-17T11:01:46.222Z,32.65
2018-09-17T11:04:16.236Z,32.85
2018-09-17T11:06:46.363Z,32.82
2018-09-17T11:09:16.372Z,32.95
2018-09-17T11:11:46.367Z,32.62
2018-09-17T11:14:16.443Z,32.53
2018-09-17T11:16:46.522Z,32.43
2018-09-17T11:19:17.130Z,33.09
2018-09-17T11:21:47.334Z,33.56
2018-09-17T11:24:17.712Z,33.46
2018-09-17T11:26:48.318Z,33.75
2018-09-17T11:29:18.934Z,34.22
2018-09-17T11:31:49.436Z,34.62
2018-09-17T11:34:26.164Z,35.07
2018-09-17T11:36:56.160Z,35.33
2018-09-17T11:39:26.170Z,35.38
2018-09-17T11:41:56.187Z,35.81
2018-09-17T11:44:26.751Z,36.07
2018-09-17T11:46:56.764Z,36.72
2018-09-17T11:49:26.858Z,36.98
2018-09-17T11:51:56.835Z,37.46
2018-09-17T11:54:27.200Z,38.77
2018-09-17T11:56:57.712Z,40.95
2018-09-17T11:59:27.711Z,42.85
2018-09-17T12:02:02.815Z,45.19
2018-09-17T12:04:37.956Z,46.47
2018-09-17T12:07:13.068Z,47.69
2018-09-17T12:09:43.149Z,49.82
2018-09-17T12:12:13.225Z,50.10
2018-09-17T12:14:43.244Z,50.03
2018-09-17T12:17:13.236Z,51.43
2018-09-17T12:19:43.240Z,51.01
2018-09-17T12:22:13.268Z,52.26
2018-09-17T12:24:43.356Z,53.82
2018-09-17T12:27:13.371Z,54.51
2018-09-17T12:29:43.353Z,54.75
2018-09-17T12:32:13.342Z,55.18
2018-09-17T12:34:43.374Z,53.87
2018-09-17T12:37:13.480Z,53.70
2018-09-17T12:39:43.582Z,51.17
2018-09-17T12:42:13.568Z,48.09
2018-09-17T12:44:43.595Z,47.48
2018-09-17T12:47:13.593Z,48.90
2018-09-17T12:49:43.590Z,49.11
2018-09-17T12:52:13.571Z,49.85
2018-09-17T12:54:43.557Z,49.43
2018-09-17T12:57:13.597Z,48.71
2018-09-17T12:59:43.564Z,46.58
2018-09-17T13:02:13.564Z,45.60
2018-09-17T13:04:43.603Z,46.06
2018-09-17T13:07:13.632Z,46.11
2018-09-17T13:09:43.619Z,46.73
2018-09-17T13:12:14.091Z,49.00
2018-09-17T13:14:44.159Z,50.17
2018-09-17T13:17:14.119Z,50.86
2018-09-17T13:19:44.184Z,51.54
2018-09-17T13:22:14.192Z,51.32
2018-09-17T13:24:44.192Z,51.62
2018-09-17T13:27:14.176Z,51.98
2018-09-17T13:29:44.424Z,53.37
2018-09-17T13:32:14.429Z,54.10
2018-09-17T13:34:44.511Z,53.36
2018-09-17T13:37:14.594Z,53.56
2018-09-17T13:39:44.721Z,53.46
2018-09-17T13:42:14.707Z,50.90
2018-09-17T13:44:44.762Z,48.06
2018-09-17T13:47:14.802Z,48.09
2018-09-17T13:49:44.884Z,48.76
2018-09-17T13:52:14.877Z,50.30
2018-09-17T13:54:44.895Z,50.49
2018-09-17T13:57:14.959Z,51.27
2018-09-17T13:59:44.984Z,51.10
2018-09-17T14:02:15.033Z,47.86
2018-09-17T14:04:45.066Z,45.54
2018-09-17T14:07:15.123Z,45.08
2018-09-17T14:09:45.158Z,46.23
2018-09-17T14:12:15.222Z,47.50
2018-09-17T14:14:45.297Z,45.54
2018-09-17T14:17:15.389Z,42.36
2018-09-17T14:19:45.549Z,41.87
2018-09-17T14:22:15.602Z,42.83
2018-09-17T14:24:45.720Z,44.00
2018-09-17T14:27:15.833Z,44.00
2018-09-17T14:29:45.917Z,44.84
2018-09-17T14:32:21.091Z,46.00
2018-09-17T14:34:51.070Z,46.11
2018-09-17T14:37:21.205Z,47.64
2018-09-17T14:39:51.238Z,46.79
2018-09-17T14:42:21.271Z,46.49
2018-09-17T14:44:51.308Z,45.97
2018-09-17T14:47:21.298Z,45.81
2018-09-17T14:49:51.529Z,45.54
2018-09-17T14:52:21.663Z,45.45
2018-09-17T14:54:51.709Z,45.71
2018-09-17T14:57:21.776Z,45.71
2018-09-17T14:59:51.829Z,45.23
2018-09-17T15:02:21.885Z,44.24
2018-09-17T15:04:51.931Z,44.45
2018-09-17T15:07:22.487Z,44.81
2018-09-17T15:09:52.539Z,45.11
2018-09-17T15:12:22.565Z,44.44
2018-09-17T15:14:52.656Z,43.46
2018-09-17T15:17:22.799Z,43.43
2018-09-17T15:19:52.866Z,42.69
2018-09-17T15:22:23.005Z,41.66
2018-09-17T15:24:53.143Z,41.49
2018-09-17T15:27:23.134Z,41.64
2018-09-17T15:29:53.172Z,41.11
2018-09-17T15:32:23.352Z,40.90
2018-09-17T15:34:53.352Z,40.04
2018-09-17T15:37:23.492Z,38.83
2018-09-17T15:39:53.576Z,37.94
2018-09-17T15:42:23.622Z,37.71
2018-09-17T15:44:53.687Z,37.67
2018-09-17T15:47:23.688Z,37.79
2018-09-17T15:49:53.787Z,37.58
2018-09-17T15:52:23.820Z,37.40
2018-09-17T15:54:53.839Z,36.84
2018-09-17T15:57:23.884Z,36.22
2018-09-17T15:59:54.008Z,35.66
2018-09-17T16:02:24.106Z,35.16
2018-09-17T16:04:54.731Z,34.91
2018-09-17T16:07:24.719Z,34.68
2018-09-17T16:09:54.788Z,34.20
2018-09-17T16:12:24.859Z,34.04
2018-09-17T16:14:54.959Z,34.08
2018-09-17T16:17:24.927Z,33.97
2018-09-17T16:19:55.017Z,33.58
2018-09-17T16:22:25.068Z,33.32
2018-09-17T16:24:55.235Z,32.71
2018-09-17T16:27:25.312Z,32.14
2018-09-17T16:29:55.351Z,31.42
2018-09-17T16:32:25.352Z,30.83
2018-09-17T16:34:55.569Z,30.62
2018-09-17T16:37:25.580Z,30.21
2018-09-17T16:39:55.631Z,29.84
2018-09-17T16:42:25.668Z,29.60
2018-09-17T16:44:55.829Z,29.24
2018-09-17T16:47:25.841Z,28.96
2018-09-17T16:49:56.043Z,28.81
2018-09-17T16:52:26.054Z,28.73
2018-09-17T16:54:56.099Z,28.55
2018-09-17T16:57:26.643Z,28.35
2018-09-17T16:59:56.800Z,28.29
2018-09-17T17:02:26.932Z,28.07
2018-09-17T17:04:57.805Z,27.94
2018-09-17T17:07:27.699Z,27.96
2018-09-17T17:09:57.775Z,27.85
2018-09-17T17:12:27.806Z,27.82
2018-09-17T17:14:57.861Z,27.71
2018-09-17T17:17:27.832Z,27.61
2018-09-17T17:19:57.970Z,27.64
2018-09-17T17:22:28.061Z,27.52
2018-09-17T17:24:58.080Z,27.46
2018-09-17T17:27:28.172Z,27.34
2018-09-17T17:29:58.168Z,27.34
2018-09-17T17:32:28.181Z,27.27
2018-09-17T17:34:58.189Z,27.21
2018-09-17T17:37:28.178Z,27.07
2018-09-17T17:39:58.334Z,26.93
2018-09-17T17:42:28.543Z,26.73
2018-09-17T17:44:58.676Z,26.56
2018-09-17T17:47:28.751Z,26.52
2018-09-17T17:49:58.780Z,26.44
2018-09-17T17:52:29.507Z,26.35
2018-09-17T17:54:59.601Z,26.28
2018-09-17T17:57:29.579Z,26.14
2018-09-17T17:59:59.643Z,26.11
2018-09-17T18:02:29.623Z,26.05
2018-09-17T18:04:59.617Z,26.11
2018-09-17T18:07:29.660Z,26.16
2018-09-17T18:09:59.727Z,26.15
2018-09-17T18:12:29.754Z,26.00
2018-09-17T18:14:59.808Z,26.00
2018-09-17T18:17:29.836Z,26.04
2018-09-17T18:19:59.880Z,25.94
2018-09-17T18:22:29.884Z,25.96
2018-09-17T18:25:00.233Z,25.91
2018-09-17T18:27:30.756Z,25.85
2018-09-17T18:30:01.373Z,25.91
2018-09-17T18:32:32.006Z,25.87
2018-09-17T18:35:07.621Z,25.89
2018-09-17T18:37:38.204Z,25.85
2018-09-17T18:40:08.723Z,25.77
2018-09-17T18:42:39.037Z,25.78
2018-09-17T18:45:09.818Z,25.78
2018-09-17T18:47:40.328Z,25.79
2018-09-17T18:50:10.868Z,25.75
2018-09-17T18:52:44.169Z,25.74
2018-09-17T18:55:14.694Z,25.68
2018-09-17T18:57:45.222Z,25.68
2018-09-17T19:00:16.034Z,25.67
2018-09-17T19:02:46.279Z,25.61
2018-09-17T19:05:17.020Z,25.46
2018-09-17T19:07:56.227Z,25.46
2018-09-17T19:10:26.568Z,25.29
2018-09-17T19:12:57.217Z,25.28
2018-09-17T19:15:32.853Z,25.22
2018-09-17T19:18:07.798Z,25.13
2018-09-17T19:20:38.706Z,25.03
2018-09-17T19:30:21.098Z,24.66
2018-09-17T19:32:51.488Z,24.49
2018-09-17T19:35:21.498Z,24.38
2018-09-17T19:37:56.700Z,24.33
2018-09-17T19:40:26.595Z,24.33
2018-09-17T19:42:56.592Z,24.33
2018-09-17T19:45:31.794Z,24.25
2018-09-17T19:48:01.823Z,24.18
2018-09-17T19:50:36.948Z,24.09
2018-09-17T19:53:07.019Z,23.93
2018-09-17T19:55:37.052Z,23.88
2018-09-17T19:58:12.135Z,23.88
2018-09-17T20:00:42.203Z,23.84
2018-09-17T20:03:12.317Z,23.92
2018-09-17T20:05:47.494Z,23.76
2018-09-17T20:08:17.510Z,23.63
2018-09-17T20:10:47.703Z,23.55
2018-09-17T20:13:17.687Z,23.45
2018-09-17T20:15:47.829Z,23.46
2018-09-17T20:18:17.838Z,23.42
2018-09-17T20:20:48.014Z,23.31
2018-09-17T20:23:18.146Z,23.29
2018-09-17T20:25:48.068Z,23.22
2018-09-17T20:28:18.002Z,23.18
2018-09-17T20:30:48.055Z,23.20
2018-09-17T20:33:18.199Z,23.08
2018-09-17T20:35:48.324Z,22.99
2018-09-17T20:38:18.511Z,22.99
2018-09-17T20:40:48.580Z,23.00
2018-09-17T20:43:18.581Z,22.98
2018-09-17T20:45:48.635Z,22.84
2018-09-17T20:48:18.988Z,22.80
2018-09-17T20:50:49.231Z,22.76
2018-09-17T20:53:19.278Z,22.85
2018-09-17T20:55:49.252Z,22.89
2018-09-17T20:58:19.350Z,22.76
2018-09-17T21:00:49.443Z,22.73
2018-09-17T21:03:19.466Z,22.68
2018-09-17T21:05:49.976Z,22.69
2018-09-17T21:08:20.546Z,22.69
2018-09-17T21:10:51.202Z,22.59
2018-09-17T21:13:21.607Z,22.51
2018-09-17T21:15:52.031Z,22.51
2018-09-17T21:18:23.070Z,22.46
2018-09-17T21:20:53.646Z,22.36
2018-09-17T21:23:24.197Z,22.37
2018-09-17T21:25:54.503Z,22.37
2018-09-17T21:28:24.956Z,22.30
2018-09-17T21:30:55.588Z,22.27
2018-09-17T21:33:26.148Z,22.26
2018-09-17T21:35:56.667Z,22.24
2018-09-17T21:38:27.192Z,22.22
2018-09-17T21:40:57.503Z,22.20
2018-09-17T21:43:27.912Z,22.06
2018-09-17T21:45:58.318Z,21.95
2018-09-17T21:48:28.874Z,21.93
2018-09-17T21:50:59.278Z,21.84
2018-09-17T21:53:29.636Z,21.91
2018-09-17T21:56:00.104Z,21.89
2018-09-17T21:58:30.525Z,21.84
2018-09-17T22:01:03.043Z,21.89
2018-09-17T22:03:35.226Z,21.92
2018-09-17T22:06:05.556Z,21.87
2018-09-17T22:08:36.083Z,21.87
2018-09-17T22:11:06.439Z,21.86
2018-09-17T22:13:36.808Z,21.81
2018-09-17T22:16:07.198Z,21.80
2018-09-17T22:18:37.617Z,21.78
2018-09-17T22:21:07.991Z,21.83
2018-09-17T22:23:38.298Z,21.85
2018-09-17T22:26:08.600Z,21.77
2018-09-17T22:28:39.108Z,21.76
2018-09-17T22:31:09.526Z,21.70
2018-09-17T22:33:40.048Z,21.70
2018-09-17T22:36:10.557Z,21.64
2018-09-17T22:38:40.750Z,21.62
2018-09-17T22:41:10.754Z,21.65
2018-09-17T22:43:41.255Z,21.64
2018-09-17T22:46:11.212Z,21.66
2018-09-17T22:48:41.234Z,21.63
2018-09-17T22:51:11.192Z,21.49
2018-09-17T22:53:41.288Z,21.49
2018-09-17T22:56:11.364Z,21.43
2018-09-17T22:58:41.363Z,21.40
2018-09-17T23:01:11.552Z,21.34
2018-09-17T23:03:42.001Z,21.31
2018-09-17T23:06:12.403Z,21.23
2018-09-17T23:08:42.812Z,21.20
2018-09-17T23:11:13.271Z,21.19
2018-09-17T23:13:43.763Z,21.14
2018-09-17T23:16:14.163Z,21.12
2018-09-17T23:18:44.694Z,21.12
2018-09-17T23:21:15.085Z,21.11
2018-09-17T23:23:45.374Z,21.09
2018-09-17T23:26:15.842Z,20.95
2018-09-17T23:28:46.355Z,20.92
2018-09-17T23:31:16.787Z,20.92
2018-09-17T23:33:47.129Z,20.88
2018-09-17T23:36:17.633Z,20.88
2018-09-17T23:38:47.666Z,20.85
2018-09-17T23:41:18.083Z,20.79
2018-09-17T23:43:48.644Z,20.80
2018-09-17T23:46:18.946Z,20.77
2018-09-17T23:48:49.289Z,20.78
2018-09-17T23:51:19.740Z,20.74
2018-09-17T23:53:50.176Z,20.68
2018-09-17T23:56:20.144Z,20.65
2018-09-17T23:58:50.304Z,20.58
